sensor_id;sensor_type;location;lat;lon;timestamp;P1;durP1;ratioP1;P2;durP2;ratioP2
10641;SDS011;5369;49.586;8.646;2023-04-25T00:00:25;6.27;;;5.67;;
10641;SDS011;5369;49.586;8.646;2023-04-25T00:02:54;6.60;;;5.10;;
10641;SDS011;5369;49.586;8.646;2023-04-25T00:05:29;7.40;;;5.70;;
10641;SDS011;5369;49.586;8.646;2023-04-25T00:07:55;6.53;;;5.83;;
10641;SDS011;5369;49.586;8.646;2023-04-25T00:10:25;7.23;;;6.03;;
10641;SDS011;5369;49.586;8.646;2023-04-25T00:12:57;16.83;;;9.27;;
10641;SDS011;5369;49.586;8.646;2023-04-25T00:15:24;8.73;;;6.50;;
10641;SDS011;5369;49.586;8.646;2023-04-25T00:17:51;8.27;;;6.10;;
10641;SDS011;5369;49.586;8.646;2023-04-25T00:20:18;9.80;;;6.57;;
10641;SDS011;5369;49.586;8.646;2023-04-25T00:22:45;6.87;;;5.47;;
10641;SDS011;5369;49.586;8.646;2023-04-25T00:25:16;9.10;;;6.60;;
10641;SDS011;5369;49.586;8.646;2023-04-25T00:27:54;15.53;;;10.30;;
10641;SDS011;5369;49.586;8.646;2023-04-25T00:30:24;20.27;;;13.17;;
10641;SDS011;5369;49.586;8.646;2023-04-25T00:32:50;16.90;;;10.63;;
10641;SDS011;5369;49.586;8.646;2023-04-25T00:35:17;11.70;;;8.63;;
10641;SDS011;5369;49.586;8.646;2023-04-25T00:37:44;16.53;;;11.03;;
10641;SDS011;5369;49.586;8.646;2023-04-25T00:40:13;22.77;;;13.73;;
10641;SDS011;5369;49.586;8.646;2023-04-25T00:42:42;15.03;;;9.67;;
10641;SDS011;5369;49.586;8.646;2023-04-25T00:45:09;11.00;;;8.90;;
10641;SDS011;5369;49.586;8.646;2023-04-25T00:47:39;22.67;;;14.00;;
10641;SDS011;5369;49.586;8.646;2023-04-25T00:50:08;15.30;;;10.67;;
10641;SDS011;5369;49.586;8.646;2023-04-25T00:52:44;15.00;;;10.63;;
10641;SDS011;5369;49.586;8.646;2023-04-25T00:55:13;10.73;;;8.00;;
10641;SDS011;5369;49.586;8.646;2023-04-25T00:57:41;12.97;;;9.23;;
10641;SDS011;5369;49.586;8.646;2023-04-25T01:00:11;13.60;;;10.10;;
10641;SDS011;5369;49.586;8.646;2023-04-25T01:02:39;8.80;;;6.20;;
10641;SDS011;5369;49.586;8.646;2023-04-25T01:05:07;12.73;;;8.97;;
10641;SDS011;5369;49.586;8.646;2023-04-25T01:07:34;10.00;;;6.87;;
10641;SDS011;5369;49.586;8.646;2023-04-25T01:10:01;8.13;;;5.57;;
10641;SDS011;5369;49.586;8.646;2023-04-25T01:12:28;6.60;;;5.87;;
10641;SDS011;5369;49.586;8.646;2023-04-25T01:14:57;6.07;;;5.07;;
10641;SDS011;5369;49.586;8.646;2023-04-25T01:17:24;5.93;;;5.20;;
10641;SDS011;5369;49.586;8.646;2023-04-25T01:19:51;5.87;;;5.27;;
10641;SDS011;5369;49.586;8.646;2023-04-25T01:22:17;8.43;;;6.63;;
10641;SDS011;5369;49.586;8.646;2023-04-25T01:24:53;7.10;;;5.90;;
10641;SDS011;5369;49.586;8.646;2023-04-25T01:27:19;7.17;;;6.20;;
10641;SDS011;5369;49.586;8.646;2023-04-25T01:29:47;7.20;;;5.83;;
10641;SDS011;5369;49.586;8.646;2023-04-25T01:32:25;7.50;;;6.17;;
10641;SDS011;5369;49.586;8.646;2023-04-25T01:34:54;6.90;;;6.13;;
10641;SDS011;5369;49.586;8.646;2023-04-25T01:37:20;6.87;;;6.17;;
10641;SDS011;5369;49.586;8.646;2023-04-25T01:39:47;7.63;;;6.03;;
10641;SDS011;5369;49.586;8.646;2023-04-25T01:42:14;8.47;;;6.60;;
10641;SDS011;5369;49.586;8.646;2023-04-25T01:44:44;7.03;;;6.33;;
10641;SDS011;5369;49.586;8.646;2023-04-25T01:47:10;6.27;;;5.67;;
10641;SDS011;5369;49.586;8.646;2023-04-25T01:49:37;7.50;;;6.50;;
10641;SDS011;5369;49.586;8.646;2023-04-25T01:52:04;7.80;;;6.80;;
10641;SDS011;5369;49.586;8.646;2023-04-25T01:54:36;7.60;;;6.77;;
10641;SDS011;5369;49.586;8.646;2023-04-25T01:57:03;7.10;;;6.40;;
10641;SDS011;5369;49.586;8.646;2023-04-25T01:59:34;7.60;;;6.70;;
10641;SDS011;5369;49.586;8.646;2023-04-25T02:02:21;7.10;;;5.87;;
10641;SDS011;5369;49.586;8.646;2023-04-25T02:04:50;7.10;;;6.40;;
10641;SDS011;5369;49.586;8.646;2023-04-25T02:07:23;7.30;;;6.03;;
10641;SDS011;5369;49.586;8.646;2023-04-25T02:09:51;7.90;;;6.73;;
10641;SDS011;5369;49.586;8.646;2023-04-25T02:12:22;8.40;;;6.67;;
10641;SDS011;5369;49.586;8.646;2023-04-25T02:15:15;7.67;;;6.67;;
10641;SDS011;5369;49.586;8.646;2023-04-25T02:17:59;8.87;;;7.97;;
10641;SDS011;5369;49.586;8.646;2023-04-25T02:20:26;8.10;;;7.30;;
10641;SDS011;5369;49.586;8.646;2023-04-25T02:22:55;8.00;;;6.57;;
10641;SDS011;5369;49.586;8.646;2023-04-25T02:25:26;8.50;;;7.60;;
10641;SDS011;5369;49.586;8.646;2023-04-25T02:27:57;8.97;;;7.67;;
10641;SDS011;5369;49.586;8.646;2023-04-25T02:30:26;9.37;;;7.63;;
10641;SDS011;5369;49.586;8.646;2023-04-25T02:32:53;9.27;;;8.13;;
10641;SDS011;5369;49.586;8.646;2023-04-25T02:35:19;8.27;;;7.37;;
10641;SDS011;5369;49.586;8.646;2023-04-25T02:37:46;7.67;;;6.50;;
10641;SDS011;5369;49.586;8.646;2023-04-25T02:40:27;8.03;;;6.70;;
10641;SDS011;5369;49.586;8.646;2023-04-25T02:42:59;8.00;;;7.20;;
10641;SDS011;5369;49.586;8.646;2023-04-25T02:45:29;6.80;;;5.97;;
10641;SDS011;5369;49.586;8.646;2023-04-25T02:47:58;7.50;;;6.70;;
10641;SDS011;5369;49.586;8.646;2023-04-25T02:50:24;7.80;;;7.00;;
10641;SDS011;5369;49.586;8.646;2023-04-25T02:52:55;8.47;;;6.80;;
10641;SDS011;5369;49.586;8.646;2023-04-25T02:55:29;8.53;;;7.63;;
10641;SDS011;5369;49.586;8.646;2023-04-25T02:57:59;8.60;;;7.67;;
10641;SDS011;5369;49.586;8.646;2023-04-25T03:00:42;8.67;;;7.70;;
10641;SDS011;5369;49.586;8.646;2023-04-25T03:03:11;8.87;;;7.50;;
10641;SDS011;5369;49.586;8.646;2023-04-25T03:05:37;12.40;;;8.67;;
10641;SDS011;5369;49.586;8.646;2023-04-25T03:08:04;16.57;;;10.07;;
10641;SDS011;5369;49.586;8.646;2023-04-25T03:10:36;23.17;;;12.80;;
10641;SDS011;5369;49.586;8.646;2023-04-25T03:13:05;18.33;;;10.87;;
10641;SDS011;5369;49.586;8.646;2023-04-25T03:15:32;14.20;;;8.97;;
10641;SDS011;5369;49.586;8.646;2023-04-25T03:17:58;11.87;;;8.97;;
10641;SDS011;5369;49.586;8.646;2023-04-25T03:20:25;11.43;;;8.73;;
10641;SDS011;5369;49.586;8.646;2023-04-25T03:22:54;13.80;;;9.90;;
10641;SDS011;5369;49.586;8.646;2023-04-25T03:25:23;15.53;;;10.97;;
10641;SDS011;5369;49.586;8.646;2023-04-25T03:27:53;10.97;;;8.97;;
10641;SDS011;5369;49.586;8.646;2023-04-25T03:30:26;14.53;;;10.40;;
10641;SDS011;5369;49.586;8.646;2023-04-25T03:32:54;9.83;;;8.80;;
10641;SDS011;5369;49.586;8.646;2023-04-25T03:35:26;12.03;;;8.90;;
10641;SDS011;5369;49.586;8.646;2023-04-25T03:38:00;9.43;;;7.73;;
10641;SDS011;5369;49.586;8.646;2023-04-25T03:40:30;10.80;;;9.10;;
10641;SDS011;5369;49.586;8.646;2023-04-25T03:43:12;9.53;;;8.23;;
10641;SDS011;5369;49.586;8.646;2023-04-25T03:45:43;10.57;;;8.40;;
10641;SDS011;5369;49.586;8.646;2023-04-25T03:48:18;10.73;;;8.97;;
10641;SDS011;5369;49.586;8.646;2023-04-25T03:50:56;11.37;;;8.90;;
10641;SDS011;5369;49.586;8.646;2023-04-25T03:53:23;11.00;;;8.77;;
10641;SDS011;5369;49.586;8.646;2023-04-25T03:56:10;13.27;;;9.27;;
10641;SDS011;5369;49.586;8.646;2023-04-25T03:58:40;11.27;;;9.17;;
10641;SDS011;5369;49.586;8.646;2023-04-25T04:01:07;10.00;;;8.63;;
10641;SDS011;5369;49.586;8.646;2023-04-25T04:03:43;10.27;;;8.77;;
10641;SDS011;5369;49.586;8.646;2023-04-25T04:06:10;8.50;;;7.67;;
10641;SDS011;5369;49.586;8.646;2023-04-25T04:08:41;8.90;;;8.00;;
10641;SDS011;5369;49.586;8.646;2023-04-25T04:11:09;8.70;;;7.80;;
10641;SDS011;5369;49.586;8.646;2023-04-25T04:13:36;11.50;;;10.30;;
10641;SDS011;5369;49.586;8.646;2023-04-25T04:16:03;9.60;;;8.57;;
10641;SDS011;5369;49.586;8.646;2023-04-25T04:18:30;10.10;;;8.17;;
10641;SDS011;5369;49.586;8.646;2023-04-25T04:20:59;9.97;;;8.60;;
10641;SDS011;5369;49.586;8.646;2023-04-25T04:23:28;9.30;;;8.40;;
10641;SDS011;5369;49.586;8.646;2023-04-25T04:25:56;9.97;;;8.67;;
10641;SDS011;5369;49.586;8.646;2023-04-25T04:28:41;10.63;;;9.53;;
10641;SDS011;5369;49.586;8.646;2023-04-25T04:31:27;8.77;;;7.77;;
10641;SDS011;5369;49.586;8.646;2023-04-25T04:33:58;9.97;;;8.73;;
10641;SDS011;5369;49.586;8.646;2023-04-25T04:36:29;12.10;;;10.90;;
10641;SDS011;5369;49.586;8.646;2023-04-25T04:38:59;11.20;;;9.77;;
10641;SDS011;5369;49.586;8.646;2023-04-25T04:41:36;11.27;;;10.03;;
10641;SDS011;5369;49.586;8.646;2023-04-25T04:44:10;13.33;;;10.43;;
10641;SDS011;5369;49.586;8.646;2023-04-25T04:46:43;12.40;;;10.63;;
10641;SDS011;5369;49.586;8.646;2023-04-25T04:49:31;11.43;;;9.37;;
10641;SDS011;5369;49.586;8.646;2023-04-25T04:52:20;9.83;;;8.83;;
10641;SDS011;5369;49.586;8.646;2023-04-25T04:55:00;12.17;;;10.53;;
10641;SDS011;5369;49.586;8.646;2023-04-25T04:58:10;13.73;;;11.00;;
10641;SDS011;5369;49.586;8.646;2023-04-25T05:00:58;11.10;;;9.87;;
10641;SDS011;5369;49.586;8.646;2023-04-25T05:03:28;12.33;;;10.40;;
10641;SDS011;5369;49.586;8.646;2023-04-25T05:06:10;12.60;;;10.77;;
10641;SDS011;5369;49.586;8.646;2023-04-25T05:09:14;11.50;;;10.10;;
10641;SDS011;5369;49.586;8.646;2023-04-25T05:12:06;12.13;;;9.60;;
10641;SDS011;5369;49.586;8.646;2023-04-25T05:14:54;11.93;;;10.60;;
10641;SDS011;5369;49.586;8.646;2023-04-25T05:17:51;14.87;;;11.10;;
10641;SDS011;5369;49.586;8.646;2023-04-25T05:20:20;14.97;;;12.63;;
10641;SDS011;5369;49.586;8.646;2023-04-25T05:23:02;13.57;;;11.03;;
10641;SDS011;5369;49.586;8.646;2023-04-25T05:25:41;14.37;;;11.27;;
10641;SDS011;5369;49.586;8.646;2023-04-25T05:28:21;13.43;;;11.47;;
10641;SDS011;5369;49.586;8.646;2023-04-25T05:31:09;13.87;;;10.80;;
10641;SDS011;5369;49.586;8.646;2023-04-25T05:34:11;16.33;;;13.67;;
10641;SDS011;5369;49.586;8.646;2023-04-25T05:37:05;14.40;;;12.17;;
10641;SDS011;5369;49.586;8.646;2023-04-25T05:39:43;14.50;;;12.23;;
10641;SDS011;5369;49.586;8.646;2023-04-25T05:42:24;16.33;;;13.87;;
10641;SDS011;5369;49.586;8.646;2023-04-25T05:45:21;15.77;;;13.23;;
10641;SDS011;5369;49.586;8.646;2023-04-25T05:48:06;14.93;;;12.70;;
10641;SDS011;5369;49.586;8.646;2023-04-25T05:51:02;14.03;;;11.77;;
10641;SDS011;5369;49.586;8.646;2023-04-25T05:53:53;14.27;;;11.50;;
10641;SDS011;5369;49.586;8.646;2023-04-25T05:56:20;13.33;;;11.70;;
10641;SDS011;5369;49.586;8.646;2023-04-25T05:58:51;14.10;;;12.13;;
10641;SDS011;5369;49.586;8.646;2023-04-25T06:01:22;14.27;;;12.77;;
10641;SDS011;5369;49.586;8.646;2023-04-25T06:03:49;14.43;;;12.47;;
10641;SDS011;5369;49.586;8.646;2023-04-25T06:06:17;14.07;;;12.10;;
10641;SDS011;5369;49.586;8.646;2023-04-25T06:08:43;15.70;;;12.57;;
10641;SDS011;5369;49.586;8.646;2023-04-25T06:11:13;15.03;;;11.77;;
10641;SDS011;5369;49.586;8.646;2023-04-25T06:13:42;13.50;;;11.57;;
10641;SDS011;5369;49.586;8.646;2023-04-25T06:16:10;14.57;;;11.43;;
10641;SDS011;5369;49.586;8.646;2023-04-25T06:18:36;14.80;;;11.43;;
10641;SDS011;5369;49.586;8.646;2023-04-25T06:21:02;17.37;;;10.27;;
10641;SDS011;5369;49.586;8.646;2023-04-25T06:23:29;14.43;;;10.13;;
10641;SDS011;5369;49.586;8.646;2023-04-25T06:26:00;12.87;;;9.87;;
10641;SDS011;5369;49.586;8.646;2023-04-25T06:28:28;14.37;;;9.67;;
10641;SDS011;5369;49.586;8.646;2023-04-25T06:30:54;14.03;;;8.90;;
10641;SDS011;5369;49.586;8.646;2023-04-25T06:33:21;10.53;;;8.23;;
10641;SDS011;5369;49.586;8.646;2023-04-25T06:35:49;12.37;;;7.67;;
10641;SDS011;5369;49.586;8.646;2023-04-25T06:38:18;11.23;;;7.60;;
10641;SDS011;5369;49.586;8.646;2023-04-25T06:40:47;11.83;;;8.17;;
10641;SDS011;5369;49.586;8.646;2023-04-25T06:43:13;13.10;;;8.30;;
10641;SDS011;5369;49.586;8.646;2023-04-25T06:46:01;19.33;;;8.63;;
10641;SDS011;5369;49.586;8.646;2023-04-25T06:48:30;11.30;;;7.57;;
10641;SDS011;5369;49.586;8.646;2023-04-25T06:50:57;14.10;;;8.20;;
10641;SDS011;5369;49.586;8.646;2023-04-25T06:53:24;15.03;;;8.10;;
10641;SDS011;5369;49.586;8.646;2023-04-25T06:55:56;12.80;;;8.03;;
10641;SDS011;5369;49.586;8.646;2023-04-25T06:58:25;12.37;;;8.13;;
10641;SDS011;5369;49.586;8.646;2023-04-25T07:01:08;12.90;;;7.83;;
10641;SDS011;5369;49.586;8.646;2023-04-25T07:03:35;16.67;;;8.50;;
10641;SDS011;5369;49.586;8.646;2023-04-25T07:06:06;12.53;;;7.90;;
10641;SDS011;5369;49.586;8.646;2023-04-25T07:08:33;13.27;;;7.87;;
10641;SDS011;5369;49.586;8.646;2023-04-25T07:10:59;12.83;;;7.60;;
10641;SDS011;5369;49.586;8.646;2023-04-25T07:13:25;12.30;;;7.10;;
10641;SDS011;5369;49.586;8.646;2023-04-25T07:15:52;12.60;;;6.93;;
10641;SDS011;5369;49.586;8.646;2023-04-25T07:18:20;14.17;;;7.97;;
10641;SDS011;5369;49.586;8.646;2023-04-25T07:20:46;12.07;;;7.93;;
10641;SDS011;5369;49.586;8.646;2023-04-25T07:23:13;14.17;;;8.53;;
10641;SDS011;5369;49.586;8.646;2023-04-25T07:25:39;16.13;;;8.83;;
10641;SDS011;5369;49.586;8.646;2023-04-25T07:28:06;15.60;;;8.50;;
10641;SDS011;5369;49.586;8.646;2023-04-25T07:30:33;13.43;;;8.70;;
10641;SDS011;5369;49.586;8.646;2023-04-25T07:33:02;15.63;;;10.03;;
10641;SDS011;5369;49.586;8.646;2023-04-25T07:35:29;12.70;;;9.60;;
10641;SDS011;5369;49.586;8.646;2023-04-25T07:37:55;16.23;;;9.03;;
10641;SDS011;5369;49.586;8.646;2023-04-25T07:40:23;16.27;;;9.37;;
10641;SDS011;5369;49.586;8.646;2023-04-25T07:42:53;16.90;;;8.70;;
10641;SDS011;5369;49.586;8.646;2023-04-25T07:45:36;14.33;;;8.67;;
10641;SDS011;5369;49.586;8.646;2023-04-25T07:48:03;12.97;;;8.70;;
10641;SDS011;5369;49.586;8.646;2023-04-25T07:50:31;14.03;;;8.53;;
10641;SDS011;5369;49.586;8.646;2023-04-25T07:52:58;12.03;;;7.60;;
10641;SDS011;5369;49.586;8.646;2023-04-25T07:55:41;14.73;;;8.17;;
10641;SDS011;5369;49.586;8.646;2023-04-25T07:58:13;15.57;;;8.30;;
10641;SDS011;5369;49.586;8.646;2023-04-25T08:00:42;14.83;;;8.57;;
10641;SDS011;5369;49.586;8.646;2023-04-25T08:03:31;13.33;;;7.77;;
10641;SDS011;5369;49.586;8.646;2023-04-25T08:05:58;12.07;;;7.37;;
10641;SDS011;5369;49.586;8.646;2023-04-25T08:08:26;11.27;;;7.43;;
10641;SDS011;5369;49.586;8.646;2023-04-25T08:10:53;10.93;;;6.97;;
10641;SDS011;5369;49.586;8.646;2023-04-25T08:13:20;11.17;;;6.30;;
10641;SDS011;5369;49.586;8.646;2023-04-25T08:15:46;16.47;;;8.47;;
10641;SDS011;5369;49.586;8.646;2023-04-25T08:18:12;13.20;;;8.37;;
10641;SDS011;5369;49.586;8.646;2023-04-25T08:20:40;14.03;;;7.43;;
10641;SDS011;5369;49.586;8.646;2023-04-25T08:23:08;10.77;;;7.30;;
10641;SDS011;5369;49.586;8.646;2023-04-25T08:25:56;11.47;;;7.73;;
10641;SDS011;5369;49.586;8.646;2023-04-25T08:28:25;13.37;;;7.10;;
10641;SDS011;5369;49.586;8.646;2023-04-25T08:30:52;10.63;;;5.80;;
10641;SDS011;5369;49.586;8.646;2023-04-25T08:33:19;9.33;;;6.07;;
10641;SDS011;5369;49.586;8.646;2023-04-25T08:36:03;9.97;;;6.53;;
10641;SDS011;5369;49.586;8.646;2023-04-25T08:38:31;11.43;;;6.83;;
10641;SDS011;5369;49.586;8.646;2023-04-25T08:40:58;12.37;;;6.20;;
10641;SDS011;5369;49.586;8.646;2023-04-25T08:43:29;12.00;;;6.27;;
10641;SDS011;5369;49.586;8.646;2023-04-25T08:45:58;10.53;;;5.90;;
10641;SDS011;5369;49.586;8.646;2023-04-25T08:48:34;9.53;;;5.73;;
10641;SDS011;5369;49.586;8.646;2023-04-25T08:51:01;12.97;;;6.07;;
10641;SDS011;5369;49.586;8.646;2023-04-25T08:53:30;9.63;;;5.27;;
10641;SDS011;5369;49.586;8.646;2023-04-25T08:56:04;9.10;;;5.23;;
10641;SDS011;5369;49.586;8.646;2023-04-25T08:58:34;7.97;;;5.53;;
10641;SDS011;5369;49.586;8.646;2023-04-25T09:01:01;8.10;;;5.27;;
10641;SDS011;5369;49.586;8.646;2023-04-25T09:03:36;9.30;;;5.50;;
10641;SDS011;5369;49.586;8.646;2023-04-25T09:06:03;11.10;;;5.73;;
10641;SDS011;5369;49.586;8.646;2023-04-25T09:08:29;11.80;;;5.57;;
10641;SDS011;5369;49.586;8.646;2023-04-25T09:10:55;9.97;;;5.50;;
10641;SDS011;5369;49.586;8.646;2023-04-25T09:13:26;9.33;;;5.00;;
10641;SDS011;5369;49.586;8.646;2023-04-25T09:16:25;8.47;;;4.83;;
10641;SDS011;5369;49.586;8.646;2023-04-25T09:19:28;10.90;;;6.07;;
10641;SDS011;5369;49.586;8.646;2023-04-25T09:21:55;12.70;;;6.03;;
10641;SDS011;5369;49.586;8.646;2023-04-25T09:24:35;11.50;;;5.50;;
10641;SDS011;5369;49.586;8.646;2023-04-25T09:27:08;8.43;;;6.00;;
10641;SDS011;5369;49.586;8.646;2023-04-25T09:29:36;9.70;;;6.07;;
10641;SDS011;5369;49.586;8.646;2023-04-25T09:32:14;12.00;;;5.80;;
10641;SDS011;5369;49.586;8.646;2023-04-25T09:34:42;8.57;;;5.40;;
10641;SDS011;5369;49.586;8.646;2023-04-25T09:37:11;9.17;;;4.90;;
10641;SDS011;5369;49.586;8.646;2023-04-25T09:40:00;9.23;;;6.07;;
10641;SDS011;5369;49.586;8.646;2023-04-25T09:42:32;9.70;;;5.73;;
10641;SDS011;5369;49.586;8.646;2023-04-25T09:45:00;11.53;;;5.97;;
10641;SDS011;5369;49.586;8.646;2023-04-25T09:47:30;9.87;;;6.20;;
10641;SDS011;5369;49.586;8.646;2023-04-25T09:49:58;9.33;;;6.07;;
10641;SDS011;5369;49.586;8.646;2023-04-25T09:52:25;12.77;;;5.60;;
10641;SDS011;5369;49.586;8.646;2023-04-25T09:55:01;11.10;;;5.97;;
10641;SDS011;5369;49.586;8.646;2023-04-25T09:57:31;8.73;;;5.83;;
10641;SDS011;5369;49.586;8.646;2023-04-25T09:59:58;11.63;;;6.47;;
10641;SDS011;5369;49.586;8.646;2023-04-25T10:02:30;9.47;;;6.10;;
10641;SDS011;5369;49.586;8.646;2023-04-25T10:05:05;12.97;;;6.47;;
10641;SDS011;5369;49.586;8.646;2023-04-25T10:07:37;10.20;;;6.73;;
10641;SDS011;5369;49.586;8.646;2023-04-25T10:10:07;11.23;;;6.57;;
10641;SDS011;5369;49.586;8.646;2023-04-25T10:12:33;10.40;;;6.37;;
10641;SDS011;5369;49.586;8.646;2023-04-25T10:15:02;10.10;;;5.90;;
10641;SDS011;5369;49.586;8.646;2023-04-25T10:17:38;9.83;;;5.93;;
10641;SDS011;5369;49.586;8.646;2023-04-25T10:20:05;10.20;;;5.40;;
10641;SDS011;5369;49.586;8.646;2023-04-25T10:22:38;8.67;;;5.60;;
10641;SDS011;5369;49.586;8.646;2023-04-25T10:25:05;9.93;;;5.77;;
10641;SDS011;5369;49.586;8.646;2023-04-25T10:27:33;9.00;;;5.80;;
10641;SDS011;5369;49.586;8.646;2023-04-25T10:30:09;7.80;;;5.30;;
10641;SDS011;5369;49.586;8.646;2023-04-25T10:32:37;9.63;;;5.40;;
10641;SDS011;5369;49.586;8.646;2023-04-25T10:35:11;9.90;;;5.93;;
10641;SDS011;5369;49.586;8.646;2023-04-25T10:37:37;10.93;;;5.30;;
10641;SDS011;5369;49.586;8.646;2023-04-25T10:40:08;10.87;;;4.40;;
10641;SDS011;5369;49.586;8.646;2023-04-25T10:42:35;8.60;;;4.60;;
10641;SDS011;5369;49.586;8.646;2023-04-25T10:45:04;6.80;;;4.13;;
10641;SDS011;5369;49.586;8.646;2023-04-25T10:47:35;5.90;;;3.73;;
10641;SDS011;5369;49.586;8.646;2023-04-25T10:50:08;6.40;;;3.60;;
10641;SDS011;5369;49.586;8.646;2023-04-25T10:52:34;4.93;;;3.43;;
10641;SDS011;5369;49.586;8.646;2023-04-25T10:55:02;5.77;;;3.60;;
10641;SDS011;5369;49.586;8.646;2023-04-25T10:57:30;5.73;;;3.13;;
10641;SDS011;5369;49.586;8.646;2023-04-25T11:02:32;5.13;;;2.90;;
10641;SDS011;5369;49.586;8.646;2023-04-25T11:05:02;4.57;;;2.80;;
10641;SDS011;5369;49.586;8.646;2023-04-25T11:07:33;5.10;;;3.30;;
10641;SDS011;5369;49.586;8.646;2023-04-25T11:10:03;5.57;;;3.00;;
10641;SDS011;5369;49.586;8.646;2023-04-25T11:12:30;6.43;;;3.17;;
10641;SDS011;5369;49.586;8.646;2023-04-25T11:15:00;5.70;;;2.93;;
10641;SDS011;5369;49.586;8.646;2023-04-25T11:17:27;4.03;;;2.90;;
10641;SDS011;5369;49.586;8.646;2023-04-25T11:19:54;4.87;;;3.07;;
10641;SDS011;5369;49.586;8.646;2023-04-25T11:22:21;6.37;;;2.77;;
10641;SDS011;5369;49.586;8.646;2023-04-25T11:24:47;5.73;;;2.90;;
10641;SDS011;5369;49.586;8.646;2023-04-25T11:27:14;5.30;;;3.10;;
10641;SDS011;5369;49.586;8.646;2023-04-25T11:29:40;5.17;;;3.53;;
10641;SDS011;5369;49.586;8.646;2023-04-25T11:32:06;5.73;;;3.20;;
10641;SDS011;5369;49.586;8.646;2023-04-25T11:34:33;4.10;;;2.87;;
10641;SDS011;5369;49.586;8.646;2023-04-25T11:37:00;7.90;;;3.73;;
10641;SDS011;5369;49.586;8.646;2023-04-25T11:39:27;5.87;;;3.23;;
10641;SDS011;5369;49.586;8.646;2023-04-25T11:41:54;4.30;;;3.00;;
10641;SDS011;5369;49.586;8.646;2023-04-25T11:44:20;5.80;;;3.20;;
10641;SDS011;5369;49.586;8.646;2023-04-25T11:46:47;7.00;;;3.20;;
10641;SDS011;5369;49.586;8.646;2023-04-25T11:49:13;4.80;;;3.30;;
10641;SDS011;5369;49.586;8.646;2023-04-25T11:54:06;5.60;;;3.10;;
10641;SDS011;5369;49.586;8.646;2023-04-25T11:56:33;5.03;;;2.97;;
10641;SDS011;5369;49.586;8.646;2023-04-25T11:59:00;6.20;;;3.50;;
10641;SDS011;5369;49.586;8.646;2023-04-25T12:03:53;5.80;;;3.30;;
10641;SDS011;5369;49.586;8.646;2023-04-25T12:06:19;6.53;;;3.53;;
10641;SDS011;5369;49.586;8.646;2023-04-25T12:09:04;7.43;;;3.67;;
10641;SDS011;5369;49.586;8.646;2023-04-25T12:11:31;5.80;;;3.43;;
10641;SDS011;5369;49.586;8.646;2023-04-25T12:14:03;7.03;;;3.70;;
10641;SDS011;5369;49.586;8.646;2023-04-25T12:16:45;6.90;;;3.33;;
10641;SDS011;5369;49.586;8.646;2023-04-25T12:19:14;6.53;;;3.67;;
10641;SDS011;5369;49.586;8.646;2023-04-25T12:21:41;8.00;;;3.90;;
10641;SDS011;5369;49.586;8.646;2023-04-25T12:24:11;7.83;;;3.90;;
10641;SDS011;5369;49.586;8.646;2023-04-25T12:29:24;6.23;;;3.87;;
10641;SDS011;5369;49.586;8.646;2023-04-25T12:31:51;6.40;;;4.50;;
10641;SDS011;5369;49.586;8.646;2023-04-25T12:34:18;6.13;;;3.73;;
10641;SDS011;5369;49.586;8.646;2023-04-25T12:36:45;6.10;;;4.03;;
10641;SDS011;5369;49.586;8.646;2023-04-25T12:39:14;5.90;;;3.67;;
10641;SDS011;5369;49.586;8.646;2023-04-25T12:41:41;4.97;;;3.57;;
10641;SDS011;5369;49.586;8.646;2023-04-25T12:44:07;5.97;;;3.60;;
10641;SDS011;5369;49.586;8.646;2023-04-25T12:46:33;4.53;;;3.37;;
10641;SDS011;5369;49.586;8.646;2023-04-25T12:48:59;6.57;;;4.00;;
10641;SDS011;5369;49.586;8.646;2023-04-25T12:51:25;6.23;;;3.73;;
10641;SDS011;5369;49.586;8.646;2023-04-25T12:53:53;5.63;;;3.93;;
10641;SDS011;5369;49.586;8.646;2023-04-25T12:56:19;5.07;;;3.50;;
10641;SDS011;5369;49.586;8.646;2023-04-25T12:58:46;5.00;;;4.00;;
10641;SDS011;5369;49.586;8.646;2023-04-25T13:01:13;6.37;;;4.27;;
10641;SDS011;5369;49.586;8.646;2023-04-25T13:03:40;9.33;;;4.00;;
10641;SDS011;5369;49.586;8.646;2023-04-25T13:06:06;5.53;;;4.40;;
10641;SDS011;5369;49.586;8.646;2023-04-25T13:08:32;5.77;;;3.93;;
10641;SDS011;5369;49.586;8.646;2023-04-25T13:11:00;6.30;;;4.23;;
10641;SDS011;5369;49.586;8.646;2023-04-25T13:13:26;6.80;;;4.10;;
10641;SDS011;5369;49.586;8.646;2023-04-25T13:15:52;8.03;;;4.70;;
10641;SDS011;5369;49.586;8.646;2023-04-25T13:18:18;8.77;;;4.23;;
10641;SDS011;5369;49.586;8.646;2023-04-25T13:20:45;5.60;;;3.73;;
10641;SDS011;5369;49.586;8.646;2023-04-25T13:23:11;7.87;;;4.70;;
10641;SDS011;5369;49.586;8.646;2023-04-25T13:25:37;6.73;;;4.40;;
10641;SDS011;5369;49.586;8.646;2023-04-25T13:28:04;6.97;;;4.37;;
10641;SDS011;5369;49.586;8.646;2023-04-25T13:30:30;6.97;;;4.03;;
10641;SDS011;5369;49.586;8.646;2023-04-25T13:32:56;7.07;;;4.67;;
10641;SDS011;5369;49.586;8.646;2023-04-25T13:35:28;7.93;;;4.80;;
10641;SDS011;5369;49.586;8.646;2023-04-25T13:37:55;10.20;;;4.93;;
10641;SDS011;5369;49.586;8.646;2023-04-25T13:40:21;7.80;;;4.73;;
10641;SDS011;5369;49.586;8.646;2023-04-25T13:42:47;7.10;;;4.40;;
10641;SDS011;5369;49.586;8.646;2023-04-25T13:45:13;6.77;;;4.30;;
10641;SDS011;5369;49.586;8.646;2023-04-25T13:47:40;6.93;;;4.10;;
10641;SDS011;5369;49.586;8.646;2023-04-25T13:50:06;7.47;;;5.10;;
10641;SDS011;5369;49.586;8.646;2023-04-25T13:52:33;8.23;;;4.90;;
10641;SDS011;5369;49.586;8.646;2023-04-25T13:54:59;6.93;;;4.40;;
10641;SDS011;5369;49.586;8.646;2023-04-25T13:57:28;8.93;;;4.63;;
10641;SDS011;5369;49.586;8.646;2023-04-25T13:59:55;6.30;;;4.70;;
10641;SDS011;5369;49.586;8.646;2023-04-25T14:02:21;6.60;;;4.33;;
10641;SDS011;5369;49.586;8.646;2023-04-25T14:04:47;5.80;;;4.60;;
10641;SDS011;5369;49.586;8.646;2023-04-25T14:07:14;8.23;;;4.30;;
10641;SDS011;5369;49.586;8.646;2023-04-25T14:09:44;5.90;;;4.40;;
10641;SDS011;5369;49.586;8.646;2023-04-25T14:12:10;7.17;;;4.27;;
10641;SDS011;5369;49.586;8.646;2023-04-25T14:14:36;9.60;;;4.40;;
10641;SDS011;5369;49.586;8.646;2023-04-25T14:17:03;5.80;;;4.67;;
10641;SDS011;5369;49.586;8.646;2023-04-25T14:19:29;6.30;;;4.33;;
10641;SDS011;5369;49.586;8.646;2023-04-25T14:21:55;9.03;;;4.90;;
10641;SDS011;5369;49.586;8.646;2023-04-25T14:24:22;7.37;;;4.60;;
10641;SDS011;5369;49.586;8.646;2023-04-25T14:26:48;9.80;;;5.00;;
10641;SDS011;5369;49.586;8.646;2023-04-25T14:29:15;9.57;;;4.77;;
10641;SDS011;5369;49.586;8.646;2023-04-25T14:31:44;9.43;;;4.60;;
10641;SDS011;5369;49.586;8.646;2023-04-25T14:34:10;7.60;;;4.20;;
10641;SDS011;5369;49.586;8.646;2023-04-25T14:36:37;7.43;;;4.27;;
10641;SDS011;5369;49.586;8.646;2023-04-25T14:39:03;8.97;;;4.80;;
10641;SDS011;5369;49.586;8.646;2023-04-25T14:41:32;8.07;;;4.03;;
10641;SDS011;5369;49.586;8.646;2023-04-25T14:43:58;9.50;;;3.93;;
10641;SDS011;5369;49.586;8.646;2023-04-25T14:46:25;7.53;;;3.80;;
10641;SDS011;5369;49.586;8.646;2023-04-25T14:48:51;8.00;;;4.10;;
10641;SDS011;5369;49.586;8.646;2023-04-25T14:51:17;9.17;;;4.30;;
10641;SDS011;5369;49.586;8.646;2023-04-25T14:53:44;8.60;;;4.20;;
10641;SDS011;5369;49.586;8.646;2023-04-25T14:56:10;8.77;;;4.00;;
10641;SDS011;5369;49.586;8.646;2023-04-25T14:58:36;6.10;;;3.90;;
10641;SDS011;5369;49.586;8.646;2023-04-25T15:01:03;7.23;;;4.00;;
10641;SDS011;5369;49.586;8.646;2023-04-25T15:03:30;6.07;;;3.60;;
10641;SDS011;5369;49.586;8.646;2023-04-25T15:05:56;7.57;;;4.33;;
10641;SDS011;5369;49.586;8.646;2023-04-25T15:08:23;9.63;;;3.97;;
10641;SDS011;5369;49.586;8.646;2023-04-25T15:10:49;7.73;;;4.00;;
10641;SDS011;5369;49.586;8.646;2023-04-25T15:13:17;8.93;;;3.93;;
10641;SDS011;5369;49.586;8.646;2023-04-25T15:15:44;6.27;;;3.67;;
10641;SDS011;5369;49.586;8.646;2023-04-25T15:18:16;6.83;;;3.60;;
10641;SDS011;5369;49.586;8.646;2023-04-25T15:20:43;6.23;;;3.60;;
10641;SDS011;5369;49.586;8.646;2023-04-25T15:23:09;8.77;;;3.77;;